Aeroporto :
LOGIN :

Iscrizione | Disclaimer

   EN    FR    IT 

 










Sommario :    VFR   VFR Marginale   IFR   IFR Intensivo   IFR Molto Intensivo
Visibilità : 
Base nubi : 
>= 8 km
>= 3000ft
5 / 8 km
1000 / 3000 ft
1500m / 5 km
500 / 1000 ft
800 / 1500m
200 / 500 ft
< 800m
< 200 ft
Simboli :   Temporali  Nebbia  Neve Forte  Precipitazioni Forti  Vento > 20 kt
SIGMETs :   Varie  Temporali  Ghiacco  Turbolenza  Onda orograficha  Ceneri Vulcaniche






- Altitudine del aeroporto : 1411 ft
- Codice IATA : SZG


LOWS - Salzburg

ULTIMO METAR :
  • 191750Z 16003KT 120V180 7000 -SHSN FEW004 BKN018 BKN022 00/M00 Q1037 R15/290195 NOSIG

METARs OBSOLETI :
  • 191720Z VRB02KT 9999 -SHSN FEW006 BKN022 BKN035 00/M00 Q1037 R15/290195 NOSIG
  • 191650Z 15003KT 9999 -SHSN FEW006 BKN022 BKN033 00/M00 Q1036 R15/290195 NOSIG
  • 191620Z 18005KT 9999 FEW006 SCT024 BKN035 00/M00 Q1036 R15/290195 NOSIG
  • 191550Z 20003KT 140V250 9999 FEW006 SCT024 BKN030 00/M00 Q1036 R15/290195 NOSIG
  • 191520Z 17004KT 110V220 9999 FEW002 SCT024 BKN030 00/00 Q1035 R15/290195 NOSIG

TAF TAF LOWS
Valido dal 19 a 18 ore il 20 a 18 ore UTC


191715Z 1918/2018 15004KT 9999 SCT020 BKN030 TX02/2014Z TNM02/2003Z
PROB40
TEMPO 1918/2005 2000 SHSN SCT008 BKN012
BECMG 2011/2013 32004KT SCT040



MetMap, La meteo Aeronautica in un colpo d'occhio ! - Copyright ORBIFLY Dicembre 2007 - Disclaimer

ORBIFLY MET'MAP TEAM :

Programmazione e sviluppo : Alexandra Zaïnal
Concezione : Baudouin d'Aumeries
Aiuto per la programmazione : Marc-Olivier Méhu
Supporto tecnico e logistico : Manuel Goepfert
Aiuto per la traduzione : Arnaldo La Scala

Contatto : metmap@orbifly.com




FONTI E CREDITI :

   NOAA